sensor_id;sensor_type;location;lat;lon;timestamp;pressure;altitude;pressure_sealevel;temperature;humidity
41947;BME280;27638;42.184;24.848;2022-09-20T00:01:08;99720.47;;;16.30;53.44
41947;BME280;27638;42.184;24.848;2022-09-20T00:03:37;99722.28;;;16.23;53.96
41947;BME280;27638;42.184;24.848;2022-09-20T00:06:05;99721.06;;;16.25;54.00
41947;BME280;27638;42.184;24.848;2022-09-20T00:08:30;99719.59;;;16.16;53.99
41947;BME280;27638;42.184;24.848;2022-09-20T00:10:56;99714.03;;;16.11;54.68
41947;BME280;27638;42.184;24.848;2022-09-20T00:13:22;99716.81;;;16.38;53.93
41947;BME280;27638;42.184;24.848;2022-09-20T00:15:47;99724.97;;;16.23;54.32
41947;BME280;27638;42.184;24.848;2022-09-20T00:18:12;99712.19;;;16.12;54.31
41947;BME280;27638;42.184;24.848;2022-09-20T00:20:47;99706.38;;;16.02;54.87
41947;BME280;27638;42.184;24.848;2022-09-20T00:23:13;99701.63;;;15.97;54.57
41947;BME280;27638;42.184;24.848;2022-09-20T00:25:39;99702.44;;;15.98;55.13
41947;BME280;27638;42.184;24.848;2022-09-20T00:28:04;99700.22;;;16.01;54.66
41947;BME280;27638;42.184;24.848;2022-09-20T00:30:31;99698.50;;;15.87;55.06
41947;BME280;27638;42.184;24.848;2022-09-20T00:32:56;99700.81;;;15.96;55.19
41947;BME280;27638;42.184;24.848;2022-09-20T00:35:21;99689.63;;;15.80;55.93
41947;BME280;27638;42.184;24.848;2022-09-20T00:37:47;99696.41;;;15.82;55.63
41947;BME280;27638;42.184;24.848;2022-09-20T00:40:13;99698.03;;;15.77;55.79
41947;BME280;27638;42.184;24.848;2022-09-20T00:42:39;99701.31;;;15.79;55.26
41947;BME280;27638;42.184;24.848;2022-09-20T00:45:05;99699.91;;;15.83;55.48
41947;BME280;27638;42.184;24.848;2022-09-20T00:50:09;99718.94;;;15.73;55.55
41947;BME280;27638;42.184;24.848;2022-09-20T00:52:37;99715.22;;;16.02;54.98
41947;BME280;27638;42.184;24.848;2022-09-20T00:55:04;99709.69;;;16.10;54.62
41947;BME280;27638;42.184;24.848;2022-09-20T00:57:31;99701.81;;;15.95;55.03
41947;BME280;27638;42.184;24.848;2022-09-20T00:59:59;99703.22;;;15.85;55.17
41947;BME280;27638;42.184;24.848;2022-09-20T01:02:27;99698.22;;;15.75;55.45
41947;BME280;27638;42.184;24.848;2022-09-20T01:04:53;99695.09;;;15.65;56.18
41947;BME280;27638;42.184;24.848;2022-09-20T01:07:19;99699.84;;;15.48;56.64
41947;BME280;27638;42.184;24.848;2022-09-20T01:09:49;99686.66;;;15.61;56.53
41947;BME280;27638;42.184;24.848;2022-09-20T01:12:16;99686.06;;;15.66;56.60
41947;BME280;27638;42.184;24.848;2022-09-20T01:14:42;99676.78;;;15.62;56.29
41947;BME280;27638;42.184;24.848;2022-09-20T01:17:08;99678.25;;;15.64;56.19
41947;BME280;27638;42.184;24.848;2022-09-20T01:22:18;99675.88;;;15.55;57.00
41947;BME280;27638;42.184;24.848;2022-09-20T01:24:59;99675.56;;;15.43;57.72
41947;BME280;27638;42.184;24.848;2022-09-20T01:27:42;99663.09;;;15.50;57.59
41947;BME280;27638;42.184;24.848;2022-09-20T01:30:09;99668.78;;;15.41;58.25
41947;BME280;27638;42.184;24.848;2022-09-20T01:35:13;99676.00;;;15.47;58.20
41947;BME280;27638;42.184;24.848;2022-09-20T01:37:50;99670.78;;;15.32;58.78
41947;BME280;27638;42.184;24.848;2022-09-20T01:40:23;99670.88;;;15.17;59.05
41947;BME280;27638;42.184;24.848;2022-09-20T01:45:44;99680.53;;;15.18;59.58
41947;BME280;27638;42.184;24.848;2022-09-20T01:56:11;99681.09;;;15.14;58.86
41947;BME280;27638;42.184;24.848;2022-09-20T01:58:53;99691.78;;;15.14;58.92
41947;BME280;27638;42.184;24.848;2022-09-20T02:01:37;99682.69;;;15.08;59.39
41947;BME280;27638;42.184;24.848;2022-09-20T02:17:27;99702.47;;;14.92;59.75
41947;BME280;27638;42.184;24.848;2022-09-20T02:20:00;99707.91;;;14.84;59.84
41947;BME280;27638;42.184;24.848;2022-09-20T02:33:34;99693.91;;;14.76;59.92
41947;BME280;27638;42.184;24.848;2022-09-20T02:44:08;99701.25;;;14.74;59.12
41947;BME280;27638;42.184;24.848;2022-09-20T02:46:40;99710.84;;;14.68;59.09
41947;BME280;27638;42.184;24.848;2022-09-20T02:49:33;99709.81;;;14.69;58.66
41947;BME280;27638;42.184;24.848;2022-09-20T02:54:45;99732.09;;;14.61;58.83
41947;BME280;27638;42.184;24.848;2022-09-20T02:57:21;99732.34;;;14.66;59.53
41947;BME280;27638;42.184;24.848;2022-09-20T02:59:51;99720.59;;;14.46;59.66
41947;BME280;27638;42.184;24.848;2022-09-20T03:18:05;99748.00;;;14.25;59.48
41947;BME280;27638;42.184;24.848;2022-09-20T03:20:34;99748.16;;;14.38;59.07
41947;BME280;27638;42.184;24.848;2022-09-20T03:25:56;99753.31;;;14.25;59.53
41947;BME280;27638;42.184;24.848;2022-09-20T03:36:10;99759.56;;;14.18;60.03
41947;BME280;27638;42.184;24.848;2022-09-20T03:38:51;99765.06;;;14.16;59.83
41947;BME280;27638;42.184;24.848;2022-09-20T03:46:29;99774.34;;;14.20;59.74
41947;BME280;27638;42.184;24.848;2022-09-20T03:51:30;99777.09;;;13.97;59.51
41947;BME280;27638;42.184;24.848;2022-09-20T03:56:33;99780.69;;;13.90;59.75
41947;BME280;27638;42.184;24.848;2022-09-20T04:04:26;99789.13;;;13.79;60.35
41947;BME280;27638;42.184;24.848;2022-09-20T04:07:12;99796.28;;;13.78;60.04
41947;BME280;27638;42.184;24.848;2022-09-20T04:12:26;99786.34;;;13.72;60.59
41947;BME280;27638;42.184;24.848;2022-09-20T04:22:46;99798.66;;;13.88;60.31
41947;BME280;27638;42.184;24.848;2022-09-20T04:25:19;99800.69;;;14.00;59.77
41947;BME280;27638;42.184;24.848;2022-09-20T04:27:53;99808.03;;;13.98;60.13
41947;BME280;27638;42.184;24.848;2022-09-20T04:33:05;99808.38;;;13.66;60.97
41947;BME280;27638;42.184;24.848;2022-09-20T04:38:37;99803.91;;;13.81;60.17
41947;BME280;27638;42.184;24.848;2022-09-20T05:01:57;99816.59;;;14.38;57.29
41947;BME280;27638;42.184;24.848;2022-09-20T05:15:38;99827.47;;;14.66;56.76
41947;BME280;27638;42.184;24.848;2022-09-20T05:23:54;99838.06;;;14.95;55.89
41947;BME280;27638;42.184;24.848;2022-09-20T05:29:01;99826.81;;;15.57;54.74
41947;BME280;27638;42.184;24.848;2022-09-20T05:36:34;99835.88;;;16.12;51.84
41947;BME280;27638;42.184;24.848;2022-09-20T05:39:19;99835.94;;;15.91;52.58
41947;BME280;27638;42.184;24.848;2022-09-20T05:41:53;99840.19;;;15.85;52.48
41947;BME280;27638;42.184;24.848;2022-09-20T05:55:12;99852.97;;;15.90;52.45
41947;BME280;27638;42.184;24.848;2022-09-20T06:00:13;99851.50;;;16.15;50.95
41947;BME280;27638;42.184;24.848;2022-09-20T06:13:00;99840.66;;;17.73;47.10
41947;BME280;27638;42.184;24.848;2022-09-20T06:18:21;99852.97;;;16.87;48.59
41947;BME280;27638;42.184;24.848;2022-09-20T06:23:15;99850.31;;;16.87;48.53
41947;BME280;27638;42.184;24.848;2022-09-20T06:25:41;99844.72;;;16.82;48.74
41947;BME280;27638;42.184;24.848;2022-09-20T06:28:13;99859.97;;;16.88;49.31
41947;BME280;27638;42.184;24.848;2022-09-20T06:30:47;99862.94;;;17.13;48.77
41947;BME280;27638;42.184;24.848;2022-09-20T06:33:16;99860.22;;;17.00;47.53
41947;BME280;27638;42.184;24.848;2022-09-20T06:35:46;99867.16;;;16.87;48.53
41947;BME280;27638;42.184;24.848;2022-09-20T06:41:09;99861.50;;;17.10;48.12
41947;BME280;27638;42.184;24.848;2022-09-20T06:43:52;99863.56;;;17.15;47.34
41947;BME280;27638;42.184;24.848;2022-09-20T06:46:17;99874.91;;;17.23;46.38
41947;BME280;27638;42.184;24.848;2022-09-20T06:48:43;99875.72;;;17.17;46.37
41947;BME280;27638;42.184;24.848;2022-09-20T06:51:08;99881.47;;;17.14;46.66
41947;BME280;27638;42.184;24.848;2022-09-20T06:53:35;99876.03;;;16.95;46.94
41947;BME280;27638;42.184;24.848;2022-09-20T06:56:01;99877.28;;;16.99;47.33
41947;BME280;27638;42.184;24.848;2022-09-20T06:58:26;99874.28;;;17.21;47.46
41947;BME280;27638;42.184;24.848;2022-09-20T07:00:52;99872.50;;;17.55;46.45
41947;BME280;27638;42.184;24.848;2022-09-20T07:03:17;99875.47;;;17.86;44.26
41947;BME280;27638;42.184;24.848;2022-09-20T07:05:44;99876.69;;;18.17;42.86
41947;BME280;27638;42.184;24.848;2022-09-20T07:08:09;99865.50;;;18.40;42.51
41947;BME280;27638;42.184;24.848;2022-09-20T07:10:34;99877.63;;;18.56;41.48
41947;BME280;27638;42.184;24.848;2022-09-20T07:13:00;99882.16;;;18.68;41.52
41947;BME280;27638;42.184;24.848;2022-09-20T07:15:26;99882.13;;;18.88;40.60
41947;BME280;27638;42.184;24.848;2022-09-20T07:17:52;99882.88;;;19.08;40.71
41947;BME280;27638;42.184;24.848;2022-09-20T07:20:17;99887.56;;;19.51;40.44
41947;BME280;27638;42.184;24.848;2022-09-20T07:22:44;99881.81;;;19.48;39.12
41947;BME280;27638;42.184;24.848;2022-09-20T07:25:09;99887.84;;;19.43;38.89
41947;BME280;27638;42.184;24.848;2022-09-20T07:27:35;99879.84;;;19.68;39.27
41947;BME280;27638;42.184;24.848;2022-09-20T07:30:00;99884.09;;;20.32;38.33
41947;BME280;27638;42.184;24.848;2022-09-20T07:32:26;99890.03;;;20.16;37.44
41947;BME280;27638;42.184;24.848;2022-09-20T07:34:51;99894.03;;;20.06;37.61
41947;BME280;27638;42.184;24.848;2022-09-20T07:37:16;99891.72;;;20.10;37.41
41947;BME280;27638;42.184;24.848;2022-09-20T07:39:43;99900.13;;;20.45;36.99
41947;BME280;27638;42.184;24.848;2022-09-20T07:42:09;99896.47;;;20.33;36.70
41947;BME280;27638;42.184;24.848;2022-09-20T07:44:35;99892.28;;;20.19;36.32
41947;BME280;27638;42.184;24.848;2022-09-20T07:47:00;99891.28;;;20.13;36.95
41947;BME280;27638;42.184;24.848;2022-09-20T07:49:26;99884.31;;;20.30;36.54
41947;BME280;27638;42.184;24.848;2022-09-20T07:51:54;99885.41;;;20.23;36.77
41947;BME280;27638;42.184;24.848;2022-09-20T07:54:20;99876.22;;;20.30;36.82
41947;BME280;27638;42.184;24.848;2022-09-20T07:56:45;99879.44;;;19.96;37.17
41947;BME280;27638;42.184;24.848;2022-09-20T07:59:11;99872.19;;;20.21;37.44
41947;BME280;27638;42.184;24.848;2022-09-20T08:01:37;99874.66;;;20.23;37.57
41947;BME280;27638;42.184;24.848;2022-09-20T08:04:03;99871.81;;;20.18;36.85
41947;BME280;27638;42.184;24.848;2022-09-20T08:06:29;99878.38;;;20.22;37.41
41947;BME280;27638;42.184;24.848;2022-09-20T08:08:55;99870.16;;;20.17;37.88
41947;BME280;27638;42.184;24.848;2022-09-20T08:11:21;99861.28;;;20.16;36.75
41947;BME280;27638;42.184;24.848;2022-09-20T08:13:49;99862.00;;;20.48;36.54
41947;BME280;27638;42.184;24.848;2022-09-20T08:16:16;99858.34;;;20.61;36.81
41947;BME280;27638;42.184;24.848;2022-09-20T08:18:49;99848.63;;;20.96;35.54
41947;BME280;27638;42.184;24.848;2022-09-20T08:21:14;99852.59;;;20.76;35.94
41947;BME280;27638;42.184;24.848;2022-09-20T08:23:40;99848.84;;;20.77;36.19
41947;BME280;27638;42.184;24.848;2022-09-20T08:26:07;99847.34;;;20.99;36.21
41947;BME280;27638;42.184;24.848;2022-09-20T08:28:33;99855.25;;;21.12;35.76
41947;BME280;27638;42.184;24.848;2022-09-20T08:31:12;99844.63;;;21.17;35.12
41947;BME280;27638;42.184;24.848;2022-09-20T08:33:38;99847.63;;;21.27;35.47
41947;BME280;27638;42.184;24.848;2022-09-20T08:36:04;99842.13;;;21.34;35.47
41947;BME280;27638;42.184;24.848;2022-09-20T08:38:32;99824.78;;;21.30;35.05
41947;BME280;27638;42.184;24.848;2022-09-20T08:41:03;99835.09;;;21.33;35.04
41947;BME280;27638;42.184;24.848;2022-09-20T08:43:31;99822.03;;;21.48;34.60
41947;BME280;27638;42.184;24.848;2022-09-20T08:45:59;99823.06;;;21.47;34.72
41947;BME280;27638;42.184;24.848;2022-09-20T08:48:27;99820.16;;;21.49;34.13
41947;BME280;27638;42.184;24.848;2022-09-20T08:50:56;99817.09;;;21.45;33.78
41947;BME280;27638;42.184;24.848;2022-09-20T08:53:21;99815.38;;;21.62;33.12
41947;BME280;27638;42.184;24.848;2022-09-20T08:55:47;99813.63;;;21.68;31.96
41947;BME280;27638;42.184;24.848;2022-09-20T08:58:12;99817.38;;;21.67;31.89
41947;BME280;27638;42.184;24.848;2022-09-20T09:00:39;99816.75;;;21.53;32.95
41947;BME280;27638;42.184;24.848;2022-09-20T09:03:05;99815.00;;;21.59;31.74
41947;BME280;27638;42.184;24.848;2022-09-20T09:05:39;99811.16;;;21.66;30.86
41947;BME280;27638;42.184;24.848;2022-09-20T09:08:11;99809.63;;;21.71;31.31
41947;BME280;27638;42.184;24.848;2022-09-20T09:10:40;99813.16;;;21.83;31.55
41947;BME280;27638;42.184;24.848;2022-09-20T09:13:06;99808.81;;;21.82;31.97
41947;BME280;27638;42.184;24.848;2022-09-20T09:15:32;99807.88;;;21.76;31.61
41947;BME280;27638;42.184;24.848;2022-09-20T09:17:59;99808.38;;;21.96;31.69
41947;BME280;27638;42.184;24.848;2022-09-20T09:20:24;99805.00;;;22.01;30.64
41947;BME280;27638;42.184;24.848;2022-09-20T09:23:00;99795.88;;;22.14;31.23
41947;BME280;27638;42.184;24.848;2022-09-20T09:25:36;99796.44;;;22.16;31.29
41947;BME280;27638;42.184;24.848;2022-09-20T09:30:36;99788.84;;;22.13;31.52
41947;BME280;27638;42.184;24.848;2022-09-20T09:33:22;99788.81;;;21.89;31.33
41947;BME280;27638;42.184;24.848;2022-09-20T09:36:42;99787.38;;;21.63;32.33
41947;BME280;27638;42.184;24.848;2022-09-20T09:38:38;99785.84;;;21.56;32.70
41947;BME280;27638;42.184;24.848;2022-09-20T09:44:00;99781.13;;;21.40;32.93
41947;BME280;27638;42.184;24.848;2022-09-20T09:46:29;99776.91;;;21.32;33.10
41947;BME280;27638;42.184;24.848;2022-09-20T09:51:33;99783.75;;;21.81;32.55
41947;BME280;27638;42.184;24.848;2022-09-20T09:53:58;99772.28;;;21.97;32.27
41947;BME280;27638;42.184;24.848;2022-09-20T10:02:09;99773.34;;;21.85;30.97
41947;BME280;27638;42.184;24.848;2022-09-20T10:17:46;99769.22;;;22.29;29.55
41947;BME280;27638;42.184;24.848;2022-09-20T10:20:32;99771.47;;;22.20;29.90
41947;BME280;27638;42.184;24.848;2022-09-20T10:30:53;99763.84;;;22.29;31.04
41947;BME280;27638;42.184;24.848;2022-09-20T10:41:09;99744.38;;;22.27;31.18
41947;BME280;27638;42.184;24.848;2022-09-20T10:44:07;99744.81;;;22.36;31.05
41947;BME280;27638;42.184;24.848;2022-09-20T10:46:40;99735.53;;;22.43;31.34
41947;BME280;27638;42.184;24.848;2022-09-20T10:49:16;99740.00;;;22.38;32.26
41947;BME280;27638;42.184;24.848;2022-09-20T11:00:17;99725.63;;;22.20;31.42
41947;BME280;27638;42.184;24.848;2022-09-20T11:05:42;99725.50;;;21.80;30.81
41947;BME280;27638;42.184;24.848;2022-09-20T11:08:15;99732.44;;;21.88;31.62
41947;BME280;27638;42.184;24.848;2022-09-20T11:15:55;99720.69;;;21.82;29.98
41947;BME280;27638;42.184;24.848;2022-09-20T11:19:09;99714.50;;;21.82;30.41
41947;BME280;27638;42.184;24.848;2022-09-20T11:26:18;99707.38;;;21.87;29.01
41947;BME280;27638;42.184;24.848;2022-09-20T11:28:50;99702.88;;;21.81;30.02
41947;BME280;27638;42.184;24.848;2022-09-20T11:31:32;99699.97;;;21.83;29.80
41947;BME280;27638;42.184;24.848;2022-09-20T11:34:22;99686.63;;;21.88;30.92
41947;BME280;27638;42.184;24.848;2022-09-20T11:36:52;99680.88;;;22.08;29.70
41947;BME280;27638;42.184;24.848;2022-09-20T11:39:25;99686.84;;;21.98;29.23
41947;BME280;27638;42.184;24.848;2022-09-20T11:41:53;99690.00;;;21.95;29.31
41947;BME280;27638;42.184;24.848;2022-09-20T11:44:19;99675.72;;;21.94;28.92
41947;BME280;27638;42.184;24.848;2022-09-20T11:52:09;99665.97;;;21.93;29.38
41947;BME280;27638;42.184;24.848;2022-09-20T11:57:22;99654.97;;;21.95;29.40
41947;BME280;27638;42.184;24.848;2022-09-20T11:59:52;99658.22;;;22.09;29.28
41947;BME280;27638;42.184;24.848;2022-09-20T12:04:55;99647.09;;;21.82;28.99
41947;BME280;27638;42.184;24.848;2022-09-20T12:07:22;99645.09;;;22.01;29.14
41947;BME280;27638;42.184;24.848;2022-09-20T12:09:58;99646.63;;;21.96;28.94
41947;BME280;27638;42.184;24.848;2022-09-20T12:12:40;99657.06;;;21.93;28.29
41947;BME280;27638;42.184;24.848;2022-09-20T12:23:41;99662.72;;;21.45;28.04
41947;BME280;27638;42.184;24.848;2022-09-20T12:25:58;99658.16;;;21.45;28.30
41947;BME280;27638;42.184;24.848;2022-09-20T12:28:31;99667.06;;;21.46;27.79
41947;BME280;27638;42.184;24.848;2022-09-20T12:36:19;99668.13;;;21.56;29.48
41947;BME280;27638;42.184;24.848;2022-09-20T12:38:45;99661.78;;;21.62;29.06
41947;BME280;27638;42.184;24.848;2022-09-20T12:41:16;99645.25;;;21.71;28.48
41947;BME280;27638;42.184;24.848;2022-09-20T12:43:52;99660.38;;;21.72;28.88
41947;BME280;27638;42.184;24.848;2022-09-20T12:46:20;99650.75;;;21.87;28.09
41947;BME280;27638;42.184;24.848;2022-09-20T12:48:45;99648.88;;;21.76;28.76
41947;BME280;27638;42.184;24.848;2022-09-20T12:53:59;99652.75;;;21.68;27.83
41947;BME280;27638;42.184;24.848;2022-09-20T12:56:24;99641.97;;;21.68;28.19
41947;BME280;27638;42.184;24.848;2022-09-20T12:58:52;99649.22;;;21.80;28.25
41947;BME280;27638;42.184;24.848;2022-09-20T13:03:47;99649.38;;;21.61;28.29
41947;BME280;27638;42.184;24.848;2022-09-20T13:11:11;99644.56;;;21.52;27.89
41947;BME280;27638;42.184;24.848;2022-09-20T13:16:03;99643.88;;;21.45;28.39
41947;BME280;27638;42.184;24.848;2022-09-20T13:18:30;99653.84;;;21.32;28.42
41947;BME280;27638;42.184;24.848;2022-09-20T13:20:56;99641.88;;;21.40;28.09
41947;BME280;27638;42.184;24.848;2022-09-20T13:23:25;99643.28;;;21.43;28.45
41947;BME280;27638;42.184;24.848;2022-09-20T13:25:52;99639.78;;;21.30;28.11
41947;BME280;27638;42.184;24.848;2022-09-20T13:30:45;99647.84;;;21.65;28.74
41947;BME280;27638;42.184;24.848;2022-09-20T13:33:21;99645.97;;;21.54;27.39
41947;BME280;27638;42.184;24.848;2022-09-20T13:35:47;99638.47;;;21.68;28.66
41947;BME280;27638;42.184;24.848;2022-09-20T13:38:14;99646.44;;;21.63;28.27
41947;BME280;27638;42.184;24.848;2022-09-20T13:40:44;99616.81;;;21.51;28.92
41947;BME280;27638;42.184;24.848;2022-09-20T13:43:26;99646.75;;;21.78;28.60
41947;BME280;27638;42.184;24.848;2022-09-20T13:45:54;99640.78;;;21.88;27.36
41947;BME280;27638;42.184;24.848;2022-09-20T13:48:23;99643.72;;;21.75;28.27
41947;BME280;27638;42.184;24.848;2022-09-20T13:50:48;99640.91;;;21.70;27.53
41947;BME280;27638;42.184;24.848;2022-09-20T13:53:14;99644.31;;;21.65;27.54
41947;BME280;27638;42.184;24.848;2022-09-20T13:55:40;99644.78;;;21.62;28.74
41947;BME280;27638;42.184;24.848;2022-09-20T13:58:19;99654.03;;;21.78;29.32
41947;BME280;27638;42.184;24.848;2022-09-20T14:00:46;99654.84;;;21.78;29.22
41947;BME280;27638;42.184;24.848;2022-09-20T14:03:15;99652.41;;;21.65;28.45
41947;BME280;27638;42.184;24.848;2022-09-20T14:05:44;99657.91;;;21.70;28.86
41947;BME280;27638;42.184;24.848;2022-09-20T14:08:12;99659.66;;;21.76;28.83
41947;BME280;27638;42.184;24.848;2022-09-20T14:10:41;99657.78;;;21.65;28.20
41947;BME280;27638;42.184;24.848;2022-09-20T14:13:10;99662.25;;;21.71;28.38
41947;BME280;27638;42.184;24.848;2022-09-20T14:15:40;99654.94;;;21.83;27.56
41947;BME280;27638;42.184;24.848;2022-09-20T14:18:07;99659.75;;;21.81;28.65
41947;BME280;27638;42.184;24.848;2022-09-20T14:20:35;99661.44;;;21.59;29.35
41947;BME280;27638;42.184;24.848;2022-09-20T14:23:01;99664.97;;;21.48;29.66
41947;BME280;27638;42.184;24.848;2022-09-20T14:25:26;99656.25;;;21.81;28.79
41947;BME280;27638;42.184;24.848;2022-09-20T14:30:36;99666.81;;;21.59;30.36
41947;BME280;27638;42.184;24.848;2022-09-20T14:33:02;99662.16;;;21.43;30.18
41947;BME280;27638;42.184;24.848;2022-09-20T14:35:28;99671.59;;;21.22;30.58
41947;BME280;27638;42.184;24.848;2022-09-20T14:37:54;99675.72;;;21.48;30.46
41947;BME280;27638;42.184;24.848;2022-09-20T14:40:25;99666.47;;;21.55;31.08
41947;BME280;27638;42.184;24.848;2022-09-20T14:45:29;99684.84;;;21.82;30.53
41947;BME280;27638;42.184;24.848;2022-09-20T14:47:59;99683.69;;;21.78;31.24
41947;BME280;27638;42.184;24.848;2022-09-20T14:53:21;99686.84;;;21.75;31.78
41947;BME280;27638;42.184;24.848;2022-09-20T14:56:06;99682.06;;;21.53;30.98
41947;BME280;27638;42.184;24.848;2022-09-20T14:58:32;99683.81;;;21.71;30.84
41947;BME280;27638;42.184;24.848;2022-09-20T15:03:46;99690.25;;;21.70;30.86
41947;BME280;27638;42.184;24.848;2022-09-20T15:06:12;99694.00;;;21.46;31.33
41947;BME280;27638;42.184;24.848;2022-09-20T15:08:38;99686.16;;;21.44;31.49
41947;BME280;27638;42.184;24.848;2022-09-20T15:11:04;99691.88;;;21.36;31.87
41947;BME280;27638;42.184;24.848;2022-09-20T15:13:29;99704.34;;;21.07;31.84
41947;BME280;27638;42.184;24.848;2022-09-20T15:15:54;99699.44;;;21.16;32.15
41947;BME280;27638;42.184;24.848;2022-09-20T15:18:20;99691.13;;;21.06;32.50
41947;BME280;27638;42.184;24.848;2022-09-20T15:20:47;99690.41;;;20.98;32.38
41947;BME280;27638;42.184;24.848;2022-09-20T15:23:12;99693.75;;;20.82;32.28
41947;BME280;27638;42.184;24.848;2022-09-20T15:25:38;99696.88;;;20.79;32.42
41947;BME280;27638;42.184;24.848;2022-09-20T15:28:03;99694.94;;;20.86;32.45
41947;BME280;27638;42.184;24.848;2022-09-20T15:30:28;99698.53;;;20.50;32.85
41947;BME280;27638;42.184;24.848;2022-09-20T15:32:54;99699.75;;;20.66;32.09
41947;BME280;27638;42.184;24.848;2022-09-20T15:35:19;99691.66;;;20.54;32.69
41947;BME280;27638;42.184;24.848;2022-09-20T15:37:45;99693.88;;;20.57;32.72
41947;BME280;27638;42.184;24.848;2022-09-20T15:40:10;99700.56;;;20.85;32.84
41947;BME280;27638;42.184;24.848;2022-09-20T15:42:36;99707.75;;;20.72;33.18
41947;BME280;27638;42.184;24.848;2022-09-20T15:45:11;99702.56;;;20.89;33.16
41947;BME280;27638;42.184;24.848;2022-09-20T15:47:39;99709.72;;;20.95;33.18
41947;BME280;27638;42.184;24.848;2022-09-20T15:50:05;99709.25;;;20.98;33.43
41947;BME280;27638;42.184;24.848;2022-09-20T15:52:35;99709.03;;;21.00;33.33
41947;BME280;27638;42.184;24.848;2022-09-20T15:55:02;99708.66;;;20.66;34.01
41947;BME280;27638;42.184;24.848;2022-09-20T15:57:28;99724.66;;;20.61;34.22
41947;BME280;27638;42.184;24.848;2022-09-20T15:59:54;99727.25;;;20.68;34.35
41947;BME280;27638;42.184;24.848;2022-09-20T16:02:19;99725.16;;;20.70;34.47
41947;BME280;27638;42.184;24.848;2022-09-20T16:04:45;99719.91;;;20.75;34.51
41947;BME280;27638;42.184;24.848;2022-09-20T16:07:11;99729.50;;;20.71;34.65
41947;BME280;27638;42.184;24.848;2022-09-20T16:09:36;99736.28;;;20.73;34.56
41947;BME280;27638;42.184;24.848;2022-09-20T16:12:02;99735.38;;;20.50;34.90
41947;BME280;27638;42.184;24.848;2022-09-20T16:14:28;99734.09;;;20.34;35.30
41947;BME280;27638;42.184;24.848;2022-09-20T16:16:54;99732.53;;;20.45;35.74
41947;BME280;27638;42.184;24.848;2022-09-20T16:19:19;99737.47;;;20.48;35.71
41947;BME280;27638;42.184;24.848;2022-09-20T16:21:48;99737.00;;;20.51;35.79
41947;BME280;27638;42.184;24.848;2022-09-20T16:24:17;99741.28;;;20.40;36.08
41947;BME280;27638;42.184;24.848;2022-09-20T16:26:42;99741.19;;;20.28;36.05
41947;BME280;27638;42.184;24.848;2022-09-20T16:29:08;99747.31;;;20.17;36.18
41947;BME280;27638;42.184;24.848;2022-09-20T16:31:39;99758.00;;;20.24;36.11
41947;BME280;27638;42.184;24.848;2022-09-20T16:34:06;99747.03;;;20.25;36.04
41947;BME280;27638;42.184;24.848;2022-09-20T16:36:33;99751.50;;;20.31;36.01
41947;BME280;27638;42.184;24.848;2022-09-20T16:38:58;99754.78;;;20.33;35.48
41947;BME280;27638;42.184;24.848;2022-09-20T16:41:26;99763.28;;;20.12;36.09
41947;BME280;27638;42.184;24.848;2022-09-20T16:43:52;99766.66;;;20.26;35.73
41947;BME280;27638;42.184;24.848;2022-09-20T16:46:18;99767.31;;;20.03;36.15
41947;BME280;27638;42.184;24.848;2022-09-20T16:48:44;99773.00;;;19.95;36.33
41947;BME280;27638;42.184;24.848;2022-09-20T16:51:11;99774.69;;;19.89;36.58
41947;BME280;27638;42.184;24.848;2022-09-20T16:53:36;99777.59;;;19.88;36.56
41947;BME280;27638;42.184;24.848;2022-09-20T16:56:02;99781.72;;;19.90;36.58
41947;BME280;27638;42.184;24.848;2022-09-20T16:58:30;99782.22;;;19.56;37.36
41947;BME280;27638;42.184;24.848;2022-09-20T17:01:04;99786.03;;;19.66;37.28
41947;BME280;27638;42.184;24.848;2022-09-20T17:03:30;99783.38;;;19.91;36.77
41947;BME280;27638;42.184;24.848;2022-09-20T17:06:05;99786.78;;;19.80;36.62
41947;BME280;27638;42.184;24.848;2022-09-20T17:08:32;99792.09;;;19.87;36.54
41947;BME280;27638;42.184;24.848;2022-09-20T17:11:08;99781.44;;;19.98;36.22
41947;BME280;27638;42.184;24.848;2022-09-20T17:13:35;99790.75;;;19.96;36.39
41947;BME280;27638;42.184;24.848;2022-09-20T17:16:03;99795.38;;;19.89;36.41
41947;BME280;27638;42.184;24.848;2022-09-20T17:18:28;99795.00;;;19.85;36.71
41947;BME280;27638;42.184;24.848;2022-09-20T17:20:54;99803.22;;;19.90;36.84
41947;BME280;27638;42.184;24.848;2022-09-20T17:23:19;99798.56;;;19.79;37.00
41947;BME280;27638;42.184;24.848;2022-09-20T17:25:45;99805.16;;;19.83;37.62
41947;BME280;27638;42.184;24.848;2022-09-20T17:28:12;99807.63;;;19.85;37.24
41947;BME280;27638;42.184;24.848;2022-09-20T17:30:38;99811.13;;;19.85;36.93
41947;BME280;27638;42.184;24.848;2022-09-20T17:33:05;99811.72;;;19.87;36.99
41947;BME280;27638;42.184;24.848;2022-09-20T17:35:30;99820.59;;;19.88;37.18
41947;BME280;27638;42.184;24.848;2022-09-20T17:37:56;99816.22;;;19.93;37.52
41947;BME280;27638;42.184;24.848;2022-09-20T17:40:21;99826.63;;;19.83;37.89
41947;BME280;27638;42.184;24.848;2022-09-20T17:42:46;99824.19;;;19.82;38.36
41947;BME280;27638;42.184;24.848;2022-09-20T17:45:11;99821.56;;;19.68;38.33
41947;BME280;27638;42.184;24.848;2022-09-20T17:47:37;99828.94;;;19.80;38.01
41947;BME280;27638;42.184;24.848;2022-09-20T17:50:06;99830.50;;;19.62;38.14
41947;BME280;27638;42.184;24.848;2022-09-20T17:52:31;99834.16;;;19.36;38.18
41947;BME280;27638;42.184;24.848;2022-09-20T17:54:56;99841.66;;;18.90;38.79
41947;BME280;27638;42.184;24.848;2022-09-20T17:57:21;99843.94;;;18.93;38.79
41947;BME280;27638;42.184;24.848;2022-09-20T17:59:47;99855.34;;;18.75;39.25
41947;BME280;27638;42.184;24.848;2022-09-20T18:02:12;99857.59;;;18.85;39.11